createdAt,value
2022-08-23T00:02:23.507Z,100622.34
2022-08-23T00:05:03.643Z,100620.66
2022-08-23T00:07:38.468Z,100607.16
2022-08-23T00:10:06.963Z,100630.97
2022-08-23T00:12:33.715Z,100625.72
2022-08-23T00:15:00.823Z,100629.06
2022-08-23T00:17:34.398Z,100616.13
2022-08-23T00:20:04.363Z,100620.31
2022-08-23T00:22:30.862Z,100623.66
2022-08-23T00:24:57.401Z,100619.66
2022-08-23T00:27:23.917Z,100597.16
2022-08-23T00:29:52.770Z,100620.69
2022-08-23T00:32:31.932Z,100617.97
2022-08-23T00:34:59.775Z,100616.34
2022-08-23T00:37:27.229Z,100613.59
2022-08-23T00:39:53.847Z,100614.03
2022-08-23T00:42:41.909Z,100618.84
2022-08-23T00:45:29.187Z,100617.38
2022-08-23T00:47:56.031Z,100606.53
2022-08-23T00:50:37.069Z,100616.34
2022-08-23T00:53:16.250Z,100611.53
2022-08-23T00:55:45.613Z,100612.59
2022-08-23T00:58:14.260Z,100614.25
2022-08-23T01:00:40.837Z,100619.47
2022-08-23T01:03:10.145Z,100607.16
2022-08-23T01:05:43.110Z,100585.69
2022-08-23T01:08:09.674Z,100619.88
2022-08-23T01:10:48.032Z,100613.00
2022-08-23T01:13:21.429Z,100597.16
2022-08-23T01:15:52.216Z,100601.53
2022-08-23T01:18:22.057Z,100616.53
2022-08-23T01:21:15.021Z,100612.16
2022-08-23T01:23:47.793Z,100615.91
2022-08-23T01:26:21.750Z,100619.22
2022-08-23T01:28:49.145Z,100613.59
2022-08-23T01:31:16.555Z,100622.16
2022-08-23T01:33:43.727Z,100625.81
2022-08-23T01:36:13.147Z,100623.69
2022-08-23T01:38:39.777Z,100609.50
2022-08-23T01:41:09.665Z,100609.66
2022-08-23T01:43:36.219Z,100625.03
2022-08-23T01:46:14.688Z,100615.94
2022-08-23T01:48:41.437Z,100623.59
2022-08-23T01:51:08.047Z,100628.31
2022-08-23T01:53:34.608Z,100617.31
2022-08-23T01:56:03.904Z,100629.78
2022-08-23T01:58:32.340Z,100614.41
2022-08-23T02:00:59.293Z,100621.81
2022-08-23T02:03:26.042Z,100620.34
2022-08-23T02:08:37.827Z,100617.09
2022-08-23T02:11:12.792Z,100623.94
2022-08-23T02:13:39.378Z,100619.00
2022-08-23T02:16:06.126Z,100593.91
2022-08-23T02:18:32.716Z,100618.56
2022-08-23T02:21:00.389Z,100623.16
2022-08-23T02:23:27.186Z,100619.75
2022-08-23T02:25:54.148Z,100638.50
2022-08-23T02:28:22.900Z,100624.88
2022-08-23T02:30:49.875Z,100631.41
2022-08-23T02:33:16.771Z,100607.34
2022-08-23T02:35:43.938Z,100588.41
2022-08-23T02:38:11.947Z,100639.59
2022-08-23T02:40:39.477Z,100634.19
2022-08-23T02:43:06.630Z,100617.75
2022-08-23T02:45:34.006Z,100616.38
2022-08-23T02:48:01.618Z,100636.19
2022-08-23T02:50:28.328Z,100641.00
2022-08-23T02:52:55.516Z,100615.97
2022-08-23T02:55:22.113Z,100637.44
2022-08-23T02:57:48.739Z,100617.16
2022-08-23T03:00:16.521Z,100645.09
2022-08-23T03:02:43.324Z,100648.66
2022-08-23T03:05:11.118Z,100637.88
2022-08-23T03:07:38.619Z,100643.19
2022-08-23T03:10:07.285Z,100644.09
2022-08-23T03:12:33.839Z,100620.53
2022-08-23T03:15:00.405Z,100641.63
2022-08-23T03:17:27.320Z,100625.31
2022-08-23T03:19:53.975Z,100632.91
2022-08-23T03:22:22.994Z,100629.31
2022-08-23T03:24:49.579Z,100640.63
2022-08-23T03:27:16.087Z,100639.28
2022-08-23T03:29:42.810Z,100633.53
2022-08-23T03:32:09.368Z,100615.75
2022-08-23T03:34:36.709Z,100645.50
2022-08-23T03:37:03.381Z,100642.94
2022-08-23T03:39:29.915Z,100604.94
2022-08-23T03:41:56.481Z,100643.84
2022-08-23T03:44:23.001Z,100645.34
2022-08-23T03:46:50.469Z,100642.94
2022-08-23T03:49:17.078Z,100652.25
2022-08-23T03:51:43.587Z,100629.25
2022-08-23T03:54:10.909Z,100653.13
2022-08-23T03:56:40.155Z,100618.22
2022-08-23T03:59:13.516Z,100657.63
2022-08-23T04:01:40.228Z,100652.16
2022-08-23T04:04:06.876Z,100649.84
2022-08-23T04:06:33.417Z,100630.47
2022-08-23T04:09:00.701Z,100677.13
2022-08-23T04:11:27.708Z,100656.63
2022-08-23T04:13:54.341Z,100679.56
2022-08-23T04:16:21.089Z,100643.91
2022-08-23T04:18:48.411Z,100676.56
2022-08-23T04:21:18.501Z,100672.50
2022-08-23T04:23:45.689Z,100679.91
2022-08-23T04:26:12.407Z,100685.88
2022-08-23T04:28:40.397Z,100691.00
2022-08-23T04:31:07.159Z,100686.16
2022-08-23T04:33:34.405Z,100677.78
2022-08-23T04:36:01.804Z,100664.19
2022-08-23T04:38:28.893Z,100679.44
2022-08-23T04:41:14.758Z,100700.66
2022-08-23T04:43:46.740Z,100690.50
2022-08-23T04:46:15.446Z,100705.31
2022-08-23T04:48:43.086Z,100693.84
2022-08-23T04:51:09.602Z,100714.69
2022-08-23T04:53:36.207Z,100708.94
2022-08-23T04:56:04.271Z,100718.06
2022-08-23T04:58:32.767Z,100728.06
2022-08-23T05:01:03.878Z,100725.69
2022-08-23T05:03:31.892Z,100703.09
2022-08-23T05:05:58.587Z,100734.97
2022-08-23T05:08:25.496Z,100730.13
2022-08-23T05:10:52.438Z,100727.66
2022-08-23T05:13:19.065Z,100725.63
2022-08-23T05:15:46.121Z,100733.78
2022-08-23T05:18:13.239Z,100702.44
2022-08-23T05:20:39.719Z,100724.09
2022-08-23T05:23:06.353Z,100730.78
2022-08-23T05:25:52.455Z,100729.91
2022-08-23T05:28:23.350Z,100731.06
2022-08-23T05:30:58.545Z,100732.41
2022-08-23T05:33:27.518Z,100681.41
2022-08-23T05:35:54.571Z,100703.34
2022-08-23T05:38:21.730Z,100738.31
2022-08-23T05:40:55.169Z,100734.19
2022-08-23T05:43:22.522Z,100746.78
2022-08-23T05:45:49.061Z,100695.44
2022-08-23T05:48:15.937Z,100754.22
2022-08-23T05:50:45.047Z,100713.09
2022-08-23T05:53:11.694Z,100751.84
2022-08-23T05:55:38.608Z,100759.78
2022-08-23T05:58:05.478Z,100755.81
2022-08-23T06:00:37.999Z,100716.25
2022-08-23T06:03:07.210Z,100740.56
2022-08-23T06:05:34.124Z,100763.25
2022-08-23T06:08:00.982Z,100761.84
2022-08-23T06:10:27.693Z,100757.19
2022-08-23T06:12:54.305Z,100758.56
2022-08-23T06:15:20.931Z,100763.59
2022-08-23T06:17:47.445Z,100756.88
2022-08-23T06:20:15.795Z,100739.97
2022-08-23T06:22:42.411Z,100764.09
2022-08-23T06:25:09.767Z,100764.88
2022-08-23T06:27:36.621Z,100774.72
2022-08-23T06:30:03.786Z,100767.44
2022-08-23T06:32:30.391Z,100781.91
2022-08-23T06:35:33.337Z,100767.91
2022-08-23T06:37:43.562Z,100775.91
2022-08-23T06:40:10.530Z,100754.44
2022-08-23T06:42:38.625Z,100774.91
2022-08-23T06:45:06.455Z,100781.59
2022-08-23T06:47:32.992Z,100763.63
2022-08-23T06:49:59.767Z,100763.44
2022-08-23T06:52:27.503Z,100757.38
2022-08-23T06:54:54.674Z,100754.03
2022-08-23T06:57:21.337Z,100774.47
2022-08-23T06:59:49.696Z,100760.69
2022-08-23T07:02:16.863Z,100782.38
2022-08-23T07:04:43.458Z,100743.41
2022-08-23T07:07:11.801Z,100756.13
2022-08-23T07:09:39.546Z,100772.16
2022-08-23T07:12:06.597Z,100759.00
2022-08-23T07:14:33.370Z,100787.31
2022-08-23T07:17:01.263Z,100795.28
2022-08-23T07:19:31.410Z,100788.25
2022-08-23T07:21:58.757Z,100789.34
2022-08-23T07:24:29.470Z,100798.34
2022-08-23T07:27:01.200Z,100798.28
2022-08-23T07:29:28.356Z,100770.63
2022-08-23T07:31:56.174Z,100792.56
2022-08-23T07:34:23.689Z,100788.25
2022-08-23T07:36:51.183Z,100801.03
2022-08-23T07:39:18.512Z,100797.25
2022-08-23T07:41:46.764Z,100795.47
2022-08-23T07:44:14.312Z,100794.66
2022-08-23T07:46:46.062Z,100795.06
2022-08-23T07:49:13.593Z,100788.97
2022-08-23T07:51:42.118Z,100798.56
2022-08-23T07:54:10.277Z,100803.47
2022-08-23T07:56:37.597Z,100773.91
2022-08-23T07:59:05.674Z,100795.00
2022-08-23T08:01:32.434Z,100788.88
2022-08-23T08:04:00.987Z,100803.84
2022-08-23T08:06:35.426Z,100807.06
2022-08-23T08:09:03.632Z,100816.41
2022-08-23T08:11:34.778Z,100808.84
2022-08-23T08:14:07.615Z,100813.56
2022-08-23T08:16:42.644Z,100811.78
2022-08-23T08:19:11.268Z,100817.31
2022-08-23T08:21:42.276Z,100821.22
2022-08-23T08:24:12.907Z,100823.25
2022-08-23T08:26:40.504Z,100820.53
2022-08-23T08:29:07.233Z,100819.34
2022-08-23T08:31:36.315Z,100787.75
2022-08-23T08:34:02.955Z,100781.81
2022-08-23T08:36:44.761Z,100816.97
2022-08-23T08:39:19.970Z,100820.03
2022-08-23T08:42:13.937Z,100831.13
2022-08-23T08:44:47.420Z,100802.72
2022-08-23T08:47:17.589Z,100824.03
2022-08-23T08:50:21.143Z,100817.97
2022-08-23T08:52:52.832Z,100810.88
2022-08-23T08:55:24.533Z,100796.16
2022-08-23T08:57:53.566Z,100817.28
2022-08-23T09:00:29.393Z,100828.38
2022-08-23T09:02:57.464Z,100821.38
2022-08-23T09:05:27.634Z,100815.09
2022-08-23T09:08:18.722Z,100810.47
2022-08-23T09:10:51.678Z,100809.03
2022-08-23T09:13:33.546Z,100809.63
2022-08-23T09:16:00.145Z,100794.91
2022-08-23T09:18:27.766Z,100802.38
2022-08-23T09:20:55.556Z,100803.59
2022-08-23T09:23:29.467Z,100796.16
2022-08-23T09:26:03.819Z,100790.03
2022-08-23T09:28:34.321Z,100803.84
2022-08-23T09:31:02.148Z,100790.13
2022-08-23T09:33:47.987Z,100781.16
2022-08-23T09:36:25.503Z,100798.25
2022-08-23T09:39:07.599Z,100785.94
2022-08-23T09:41:37.737Z,100785.44
2022-08-23T09:44:07.739Z,100775.13
2022-08-23T09:46:39.162Z,100789.19
2022-08-23T09:49:28.238Z,100785.03
2022-08-23T09:51:56.910Z,100783.59
2022-08-23T09:54:30.602Z,100744.69
2022-08-23T09:57:02.877Z,100749.94
2022-08-23T09:59:45.594Z,100733.94
2022-08-23T10:02:21.225Z,100760.53
2022-08-23T10:04:56.885Z,100758.47
2022-08-23T10:07:40.414Z,100748.41
2022-08-23T10:10:23.860Z,100763.25
2022-08-23T10:12:51.707Z,100726.03
2022-08-23T10:15:18.547Z,100719.00
2022-08-23T10:18:09.551Z,100750.78
2022-08-23T10:20:41.862Z,100740.47
2022-08-23T10:23:24.725Z,100738.78
2022-08-23T10:25:55.488Z,100742.66
2022-08-23T10:29:00.045Z,100755.56
2022-08-23T10:31:31.280Z,100735.81
2022-08-23T10:34:21.259Z,100734.25
2022-08-23T10:37:06.317Z,100738.13
2022-08-23T10:39:33.170Z,100731.19
2022-08-23T10:42:07.849Z,100729.81
2022-08-23T10:44:46.800Z,100729.19
2022-08-23T10:47:41.304Z,100724.41
2022-08-23T10:50:15.246Z,100728.84
2022-08-23T10:52:55.168Z,100722.00
2022-08-23T10:55:43.872Z,100729.63
2022-08-23T10:58:15.614Z,100708.28
2022-08-23T11:00:42.725Z,100722.03
2022-08-23T11:03:28.916Z,100714.81
2022-08-23T11:06:24.990Z,100720.25
2022-08-23T11:08:59.861Z,100719.03
2022-08-23T11:11:47.659Z,100724.56
2022-08-23T11:14:39.971Z,100702.16
2022-08-23T11:17:08.906Z,100672.22
2022-08-23T11:19:56.230Z,100699.97
2022-08-23T11:22:26.094Z,100702.63
2022-08-23T11:25:06.019Z,100693.94
2022-08-23T11:27:41.117Z,100709.50
2022-08-23T11:30:32.846Z,100701.72
2022-08-23T11:33:15.310Z,100702.31
2022-08-23T11:35:43.425Z,100697.72
2022-08-23T11:38:11.670Z,100697.72
2022-08-23T11:40:41.208Z,100686.16
2022-08-23T11:43:20.626Z,100683.22
2022-08-23T11:45:47.599Z,100679.16
2022-08-23T11:48:35.189Z,100692.72
2022-08-23T11:51:22.240Z,100686.31
2022-08-23T11:53:54.547Z,100680.28
2022-08-23T11:56:28.247Z,100685.63
2022-08-23T11:59:17.119Z,100676.91
2022-08-23T12:01:45.642Z,100679.31
2022-08-23T12:04:42.219Z,100681.72
2022-08-23T12:07:13.159Z,100662.84
2022-08-23T12:09:43.020Z,100686.44
2022-08-23T12:12:27.136Z,100692.03
2022-08-23T12:14:56.756Z,100690.94
2022-08-23T12:17:25.908Z,100686.41
2022-08-23T12:19:54.036Z,100684.13
2022-08-23T12:22:23.912Z,100688.41
2022-08-23T12:25:08.050Z,100679.56
2022-08-23T12:27:44.726Z,100688.06
2022-08-23T12:30:50.416Z,100691.06
2022-08-23T12:33:32.163Z,100644.25
2022-08-23T12:35:58.677Z,100701.03
2022-08-23T12:38:56.677Z,100697.97
2022-08-23T12:41:29.389Z,100696.53
2022-08-23T12:44:02.021Z,100685.66
2022-08-23T12:46:40.011Z,100680.63
2022-08-23T12:49:09.083Z,100682.28
2022-08-23T12:51:42.036Z,100693.56
2022-08-23T12:54:14.080Z,100692.53
2022-08-23T12:56:40.757Z,100693.66
2022-08-23T12:59:27.592Z,100702.88
2022-08-23T13:01:54.648Z,100699.91
2022-08-23T13:04:21.565Z,100695.03
2022-08-23T13:06:59.232Z,100700.09
2022-08-23T13:09:33.011Z,100705.00
2022-08-23T13:12:00.923Z,100702.75
2022-08-23T13:14:34.352Z,100708.13
2022-08-23T13:17:39.975Z,100705.78
2022-08-23T13:20:06.555Z,100704.00
2022-08-23T13:22:34.339Z,100694.94
2022-08-23T13:25:27.458Z,100692.59
2022-08-23T13:27:59.359Z,100693.41
2022-08-23T13:30:37.639Z,100703.56
2022-08-23T13:33:04.216Z,100702.00
2022-08-23T13:35:41.211Z,100705.31
2022-08-23T13:38:08.109Z,100702.75
2022-08-23T13:40:55.769Z,100698.66
2022-08-23T13:43:55.296Z,100700.84
2022-08-23T13:46:24.709Z,100660.97
2022-08-23T13:48:56.788Z,100697.97
2022-08-23T13:51:38.811Z,100687.91
2022-08-23T13:54:10.213Z,100651.53
2022-08-23T13:56:49.073Z,100689.91
2022-08-23T13:59:34.379Z,100688.72
2022-08-23T14:02:03.341Z,100690.00
2022-08-23T14:04:30.122Z,100689.47
2022-08-23T14:06:56.686Z,100655.25
2022-08-23T14:09:23.286Z,100682.25
2022-08-23T14:11:53.801Z,100693.28
2022-08-23T14:14:20.584Z,100661.06
2022-08-23T14:16:47.211Z,100697.22
2022-08-23T14:19:16.714Z,100694.34
2022-08-23T14:22:00.435Z,100688.22
2022-08-23T14:24:27.205Z,100690.31
2022-08-23T14:26:55.373Z,100678.41
2022-08-23T14:29:23.493Z,100688.59
2022-08-23T14:31:51.564Z,100686.09
2022-08-23T14:34:18.414Z,100690.97
2022-08-23T14:38:00.232Z,100689.19
2022-08-23T14:39:31.470Z,100681.13
2022-08-23T14:41:58.117Z,100670.44
2022-08-23T14:44:27.901Z,100691.16
2022-08-23T14:46:56.842Z,100691.56
2022-08-23T14:49:23.415Z,100680.63
2022-08-23T14:51:50.442Z,100680.75
2022-08-23T14:54:22.649Z,100687.63
2022-08-23T14:56:49.545Z,100685.56
2022-08-23T14:59:16.285Z,100688.53
2022-08-23T15:01:42.981Z,100690.75
2022-08-23T15:04:10.081Z,100691.56
2022-08-23T15:06:54.969Z,100694.44
2022-08-23T15:09:27.259Z,100669.56
2022-08-23T15:14:41.433Z,100683.97
2022-08-23T15:17:07.988Z,100686.06
2022-08-23T15:19:34.513Z,100678.41
2022-08-23T15:22:06.475Z,100631.19
2022-08-23T15:24:45.574Z,100679.66
2022-08-23T15:27:12.443Z,100686.03
2022-08-23T15:29:39.061Z,100680.34
2022-08-23T15:32:05.742Z,100678.09
2022-08-23T15:34:35.449Z,100677.38
2022-08-23T15:37:02.068Z,100675.13
2022-08-23T15:39:29.938Z,100672.91
2022-08-23T15:41:56.474Z,100675.47
2022-08-23T15:44:23.243Z,100666.28
2022-08-23T15:46:49.983Z,100674.91
2022-08-23T15:49:18.498Z,100679.22
2022-08-23T15:51:45.754Z,100678.88
2022-08-23T15:54:12.470Z,100670.31
2022-08-23T15:56:45.188Z,100666.25
2022-08-23T15:59:14.471Z,100682.09
2022-08-23T16:01:42.006Z,100676.22
2022-08-23T16:04:09.261Z,100679.34
2022-08-23T16:06:37.253Z,100674.13
2022-08-23T16:09:05.961Z,100681.72
2022-08-23T16:11:33.080Z,100650.06
2022-08-23T16:13:59.646Z,100679.41
2022-08-23T16:16:30.840Z,100689.25
2022-08-23T16:18:59.644Z,100684.06
2022-08-23T16:21:28.866Z,100686.91
2022-08-23T16:23:57.449Z,100678.28
2022-08-23T16:26:32.345Z,100677.16
2022-08-23T16:29:03.008Z,100682.41
2022-08-23T16:31:37.420Z,100684.06
2022-08-23T16:34:14.036Z,100682.75
2022-08-23T16:36:48.257Z,100676.22
2022-08-23T16:39:16.025Z,100651.16
2022-08-23T16:41:42.624Z,100682.25
2022-08-23T16:44:09.826Z,100657.69
2022-08-23T16:46:36.661Z,100678.97
2022-08-23T16:49:03.801Z,100681.78
2022-08-23T16:51:30.375Z,100681.16
2022-08-23T16:54:02.882Z,100680.06
2022-08-23T16:56:33.990Z,100658.91
2022-08-23T16:59:01.618Z,100680.72
2022-08-23T17:01:29.372Z,100689.47
2022-08-23T17:03:56.185Z,100687.84
2022-08-23T17:06:22.766Z,100678.19
2022-08-23T17:08:49.571Z,100692.78
2022-08-23T17:11:19.202Z,100662.50
2022-08-23T17:13:46.207Z,100651.78
2022-08-23T17:16:12.907Z,100684.38
2022-08-23T17:18:39.992Z,100695.94
2022-08-23T17:21:07.432Z,100700.03
2022-08-23T17:23:39.254Z,100697.28
2022-08-23T17:26:08.187Z,100706.09
2022-08-23T17:28:35.131Z,100707.94
2022-08-23T17:31:01.961Z,100705.91
2022-08-23T17:33:28.632Z,100708.84
2022-08-23T17:35:55.144Z,100670.16
2022-08-23T17:38:21.637Z,100714.19
2022-08-23T17:40:49.505Z,100716.53
2022-08-23T17:43:16.271Z,100714.22
2022-08-23T17:45:46.580Z,100710.06
2022-08-23T17:48:14.742Z,100725.31
2022-08-23T17:50:43.560Z,100728.81
2022-08-23T17:53:11.272Z,100737.44
2022-08-23T17:55:39.229Z,100738.28
2022-08-23T17:58:07.565Z,100734.97
2022-08-23T18:00:35.800Z,100731.25
2022-08-23T18:03:03.291Z,100739.38
2022-08-23T18:05:31.468Z,100744.09
2022-08-23T18:07:57.975Z,100744.53
2022-08-23T18:10:25.326Z,100746.09
2022-08-23T18:12:52.275Z,100749.47
2022-08-23T18:15:18.935Z,100733.88
2022-08-23T18:17:45.816Z,100727.00
2022-08-23T18:20:13.037Z,100730.75
2022-08-23T18:22:40.041Z,100754.72
2022-08-23T18:25:09.241Z,100762.19
2022-08-23T18:27:54.402Z,100760.81
2022-08-23T18:30:21.461Z,100768.50
2022-08-23T18:32:47.981Z,100772.13
2022-08-23T18:35:15.008Z,100758.97
2022-08-23T18:37:41.952Z,100778.25
2022-08-23T18:40:10.057Z,100777.63
2022-08-23T18:42:37.407Z,100784.00
2022-08-23T18:45:05.303Z,100785.84
2022-08-23T18:47:32.198Z,100789.34
2022-08-23T18:49:58.695Z,100802.28
2022-08-23T18:52:27.481Z,100787.25
2022-08-23T18:54:57.434Z,100802.56
2022-08-23T18:57:24.026Z,100769.84
2022-08-23T18:59:50.528Z,100797.78
2022-08-23T19:02:17.667Z,100811.31
2022-08-23T19:04:44.398Z,100813.56
2022-08-23T19:07:11.013Z,100813.00
2022-08-23T19:09:38.113Z,100804.91
2022-08-23T19:12:06.382Z,100822.59
2022-08-23T19:14:35.497Z,100822.13
2022-08-23T19:17:04.734Z,100826.41
2022-08-23T19:19:31.383Z,100828.66
2022-08-23T19:21:58.391Z,100819.38
2022-08-23T19:24:25.202Z,100832.56
2022-08-23T19:26:52.508Z,100841.72
2022-08-23T19:29:20.575Z,100839.03
2022-08-23T19:31:48.446Z,100828.97
2022-08-23T19:34:17.409Z,100847.03
2022-08-23T19:36:48.263Z,100851.97
2022-08-23T19:39:18.552Z,100831.94
2022-08-23T19:41:46.224Z,100850.31
2022-08-23T19:44:12.854Z,100850.88
2022-08-23T19:46:42.052Z,100852.25
2022-08-23T19:49:10.297Z,100846.78
2022-08-23T19:51:37.105Z,100818.41
2022-08-23T19:54:04.770Z,100811.03
2022-08-23T19:56:41.271Z,100848.97
2022-08-23T19:59:12.111Z,100829.31
2022-08-23T20:01:39.524Z,100852.69
2022-08-23T20:04:09.114Z,100838.38
2022-08-23T20:06:35.836Z,100838.16
2022-08-23T20:09:02.975Z,100852.31
2022-08-23T20:11:31.842Z,100864.44
2022-08-23T20:14:00.163Z,100829.94
2022-08-23T20:16:27.658Z,100856.34
2022-08-23T20:18:55.292Z,100874.13
2022-08-23T20:21:23.579Z,100872.84
2022-08-23T20:24:04.241Z,100873.78
2022-08-23T20:26:40.894Z,100880.31
2022-08-23T20:29:19.235Z,100879.97
2022-08-23T20:31:53.181Z,100849.59
2022-08-23T20:34:20.060Z,100857.25
2022-08-23T20:36:46.611Z,100845.78
2022-08-23T20:39:14.300Z,100885.97
2022-08-23T20:41:41.460Z,100886.66
2022-08-23T20:44:09.270Z,100888.41
2022-08-23T20:46:35.943Z,100852.28
2022-08-23T20:49:03.091Z,100886.66
2022-08-23T20:51:29.734Z,100858.13
2022-08-23T20:53:56.806Z,100888.34
2022-08-23T20:56:24.133Z,100884.25
2022-08-23T20:58:51.443Z,100892.56
2022-08-23T21:01:18.872Z,100849.22
2022-08-23T21:03:45.779Z,100863.97
2022-08-23T21:06:21.841Z,100887.97
2022-08-23T21:08:53.440Z,100878.00
2022-08-23T21:11:21.995Z,100882.38
2022-08-23T21:13:48.613Z,100843.81
2022-08-23T21:16:16.321Z,100861.94
2022-08-23T21:18:42.942Z,100885.06
2022-08-23T21:21:10.101Z,100887.94
2022-08-23T21:23:37.371Z,100884.06
2022-08-23T21:26:04.555Z,100875.47
2022-08-23T21:28:32.717Z,100888.94
2022-08-23T21:31:11.843Z,100887.75
2022-08-23T21:33:40.297Z,100893.25
2022-08-23T21:36:07.730Z,100890.28
2022-08-23T21:38:34.582Z,100865.09
2022-08-23T21:41:04.619Z,100886.72
2022-08-23T21:43:32.761Z,100901.38
2022-08-23T21:45:59.305Z,100842.75
2022-08-23T21:48:25.916Z,100868.19
2022-08-23T21:50:52.525Z,100889.69
2022-08-23T21:53:20.974Z,100883.56
2022-08-23T21:55:47.901Z,100895.06
2022-08-23T21:58:14.469Z,100889.97
2022-08-23T22:00:41.454Z,100896.56
2022-08-23T22:03:09.109Z,100890.34
2022-08-23T22:05:43.480Z,100894.00
2022-08-23T22:08:10.817Z,100896.59
2022-08-23T22:10:44.891Z,100893.53
2022-08-23T22:13:25.781Z,100896.72
2022-08-23T22:15:52.343Z,100894.19
2022-08-23T22:18:19.486Z,100882.72
2022-08-23T22:20:46.483Z,100884.41
2022-08-23T22:23:13.278Z,100903.75
2022-08-23T22:25:39.840Z,100907.53
2022-08-23T22:28:06.364Z,100916.31
2022-08-23T22:30:32.871Z,100911.69
2022-08-23T22:32:59.567Z,100913.63
2022-08-23T22:35:26.100Z,100885.78
2022-08-23T22:38:12.240Z,100897.81
2022-08-23T22:40:39.436Z,100918.03
2022-08-23T22:43:06.894Z,100910.25
2022-08-23T22:45:33.607Z,100912.22
2022-08-23T22:48:00.552Z,100916.34
2022-08-23T22:50:27.141Z,100908.00
2022-08-23T22:52:53.647Z,100893.63
2022-08-23T22:55:21.551Z,100922.34
2022-08-23T22:57:48.363Z,100875.63
2022-08-23T23:00:16.151Z,100921.69
2022-08-23T23:02:42.996Z,100903.31
2022-08-23T23:05:09.563Z,100912.47
2022-08-23T23:08:11.378Z,100917.19
2022-08-23T23:10:37.901Z,100907.44
2022-08-23T23:13:04.425Z,100923.91
2022-08-23T23:15:30.924Z,100916.53
2022-08-23T23:17:57.638Z,100918.38
2022-08-23T23:20:40.764Z,100915.94
2022-08-23T23:23:10.014Z,100914.31
2022-08-23T23:25:40.697Z,100887.97
2022-08-23T23:28:07.931Z,100898.66
2022-08-23T23:30:35.730Z,100924.69
2022-08-23T23:33:02.945Z,100920.53
2022-08-23T23:35:29.790Z,100926.63
2022-08-23T23:37:57.161Z,100902.72
2022-08-23T23:40:24.432Z,100931.00
2022-08-23T23:42:52.163Z,100925.44
2022-08-23T23:45:21.413Z,100928.56
2022-08-23T23:47:48.145Z,100926.50
2022-08-23T23:50:15.257Z,100925.19
2022-08-23T23:52:42.357Z,100926.25
2022-08-23T23:55:11.869Z,100923.91
2022-08-23T23:57:38.571Z,100895.13
